Latest Coastal Weather Observations for Kowanyama

IDQ60701

Issued at 1:42 am EST Tuesday 26 May 2015 (issued every 10 minutes, with the page automatically refreshed every 10 minutes)

About coastal observations | Map of coastal stations | Coastal observations for QLD | Marine services | Other Formats
Station Details ID: 029038 Name: KOWANYAMA AIRPORT Lat: -15.48 Lon: 141.75 Height: 9.6 m
Data from the previous 72 hours. | See also: Recent months at Kowanyama
Date/Time
EST
Temp

°C
Wind Pressure Rain
since 9am
mm
Weather Cloud Vis
km
Sea
Height
m
Swell
Dir
 
Speed
knots
Gust
knots
hPa Trend Height
m
Period
s
Dir
26/01:30am 24.8 E 5 7 1017.9 - 0.0 - Partly cloudy - - - - -
26/01:00am 24.3 ENE 4 6 1018.1 - 0.0 - Cloudy - - - - -
26/12:30am 22.9 CALM 0 0 1018.0 - 0.0 - Partly cloudy - - - - -
26/12:00am 23.0 CALM 0 0 1018.1 - 0.0 - Mostly cloudy - - - - -
 
Date/Time
EST
Temp

°C
Wind Pressure Rain
since 9am
mm
Weather Cloud Vis
km
Sea
Height
m
Swell
Dir
 
Speed
knots
Gust
knots
hPa Trend Height
m
Period
s
Dir
25/11:30pm 23.1 CALM 0 0 1018.2 - 0.0 - - - - - - -
25/11:00pm 23.7 NE 3 5 1018.2 - 0.0 - Partly cloudy - - - - -
25/10:30pm 23.8 CALM 0 0 1018.2 - 0.0 - Partly cloudy - - - - -
25/10:00pm 24.3 CALM 0 0 1017.7 - 0.0 - - - - - - -
25/09:30pm 24.7 NW 3 5 1017.4 - 0.0 - - - - - - -
25/09:00pm 25.2 NW 2 5 1017.0 - 0.0 - Mostly clear - - - - -
25/08:30pm 26.4 WNW 2 4 1016.6 - 0.0 - Partly cloudy - - - - -
25/08:00pm 26.7 NW 3 6 1016.0 - 0.0 - Partly cloudy - - - - -
25/07:30pm 27.2 WNW 4 5 1015.5 - 0.0 - Partly cloudy - - - - -
25/07:00pm 27.9 WNW 4 6 1015.1 - 0.0 - Partly cloudy - - - - -
25/06:30pm 29.0 NW 5 8 1014.6 - 0.0 - Partly cloudy - - - - -
25/06:00pm 29.5 CALM 0 3 1014.4 - 0.0 - Mostly cloudy - - - - -
25/05:30pm 31.5 E 4 5 1014.2 - 0.0 - Cloudy - - - - -
25/05:00pm 32.1 ESE 4 6 1014.1 - 0.0 - Cloudy - - - - -
25/04:30pm 32.6 ENE 4 7 1014.0 - 0.0 - Partly cloudy - - - - -
25/04:00pm 33.6 ENE 6 10 1013.8 - 0.0 - Partly cloudy - - - - -
25/03:30pm 33.5 E 7 11 1013.8 - 0.0 - Partly cloudy - - - - -
25/03:00pm 33.4 ENE 8 13 1013.9 - 0.0 - - - - - - -
25/02:30pm 33.6 E 7 13 1014.0 - 0.0 - - - - - - -
25/02:00pm 32.8 E 9 14 1014.4 - 0.0 - - - - - - -
25/01:30pm 33.0 ESE 10 15 1015.0 - 0.0 - - - - - - -
25/01:00pm 32.3 ESE 11 16 1015.5 - 0.0 - - - - - - -
25/12:30pm 31.9 E 10 16 1016.2 - 0.0 - - - - - - -
25/12:00pm 31.8 E 11 15 1016.5 - 0.0 - - - - - - -
25/11:30am 30.4 E 9 15 1017.1 - 0.0 - - - - - - -
25/11:00am 29.6 E 10 15 1017.4 - 0.0 - - - - - - -
25/10:30am 28.8 E 11 17 1017.9 - 0.0 - - - - - - -
25/10:00am 27.6 E 11 18 1018.2 - 0.0 - - - - - - -
25/09:30am 26.7 E 8 14 1018.4 - 0.0 - - - - - - -
25/09:00am 25.1 ESE 8 11 1018.5 - 0.0 - - - - - - -
25/08:30am 23.1 ESE 7 8 1018.4 - 0.0 - - - - - - -
25/08:00am 21.2 SE 6 7 1018.1 - 0.0 - - - - - - -
25/07:30am 19.5 SE 3 5 1017.8 - 0.0 - - - - - - -
25/07:00am 18.7 SSE 3 4 1017.5 - 0.0 - - - - - - -
25/06:30am 18.3 CALM 0 0 1017.3 - 0.0 - - - - - - -
25/06:00am 18.4 CALM 0 0 1016.9 - 0.0 - - - - - - -
25/05:30am 18.3 CALM 0 0 1016.7 - 0.0 - - - - - - -
25/05:00am 18.9 CALM 0 0 1016.7 - 0.0 - - - - - - -
25/04:30am 19.2 CALM 0 0 1016.7 - 0.0 - - - - - - -
25/04:00am 20.2 E 3 4 1016.6 - 0.0 - - - - - - -
25/03:30am 21.2 E 4 6 1016.7 - 0.0 - - - - - - -
25/03:00am 19.8 E 3 4 1016.9 - 0.0 - - - - - - -
25/02:30am 19.5 ESE 2 4 1017.0 - 0.0 - - - - - - -
25/02:00am 19.8 CALM 0 0 1017.1 - 0.0 - - - - - - -
25/01:30am 19.8 CALM 0 0 1017.0 - 0.0 - - - - - - -
25/01:00am 19.9 NE 3 4 1017.1 - 0.0 - - - - - - -
25/12:30am 20.5 CALM 0 0 1017.4 - 0.0 - - - - - - -
25/12:00am 21.1 CALM 0 0 1017.5 - 0.0 - - - - - - -
 
Date/Time
EST
Temp

°C
Wind Pressure Rain
since 9am
mm
Weather Cloud Vis
km
Sea
Height
m
Swell
Dir
 
Speed
knots
Gust
knots
hPa Trend Height
m
Period
s
Dir
24/11:30pm 21.0 CALM 0 0 1017.3 - 0.0 - - - - - - -
24/11:00pm 21.3 NE 3 5 1017.4 - 0.0 - - - - - - -
24/10:30pm 21.9 CALM 0 0 1017.0 - 0.0 - - - - - - -
24/10:00pm 21.9 CALM 0 0 1016.8 - 0.0 - - - - - - -
24/09:30pm 22.2 NW 3 4 1016.7 - 0.0 - - - - - - -
24/09:00pm 22.3 NW 3 4 1016.4 - 0.0 - - - - - - -
24/08:30pm 23.3 NW 1 4 1016.1 - 0.0 - - - - - - -
24/08:00pm 23.9 W 3 4 1015.6 - 0.0 - - - - - - -
24/07:30pm 23.8 CALM 0 0 1015.1 - 0.0 - - - - - - -
24/07:00pm 25.0 CALM 0 0 1014.8 - 0.0 - - - - - - -
24/06:30pm 26.1 ESE 3 4 1014.4 - 0.0 - - - - - - -
24/06:00pm 28.0 ESE 3 4 1014.2 - 0.0 - - - - - - -
24/05:30pm 30.4 ESE 4 6 1013.8 - 0.0 - - - - - - -
24/05:00pm 31.3 ESE 5 7 1013.5 - 0.0 - Partly cloudy - - - - -
24/04:30pm 31.6 ESE 7 11 1013.3 - 0.0 - Partly cloudy - - - - -
24/04:00pm 31.9 ESE 9 13 1013.1 - 0.0 - Partly cloudy - - - - -
24/03:30pm 32.1 ESE 9 13 1013.1 - 0.0 - Partly cloudy - - - - -
24/03:00pm 31.8 ESE 8 10 1013.2 - 0.0 - Cloudy - - - - -
24/02:30pm 31.8 E 8 14 1013.3 - 0.0 - - - - - - -
24/02:00pm 32.1 ESE 9 13 1013.5 - 0.0 - - - - - - -
24/01:30pm 31.5 E 7 12 1014.1 - 0.0 - - - - - - -
24/01:00pm 30.8 ESE 8 14 1014.6 - 0.0 - - - - - - -
24/12:30pm 30.7 E 8 13 1015.2 - 0.0 - - - - - - -
24/12:00pm 29.5 E 8 15 1015.7 - 0.0 - - - - - - -
24/11:30am 29.3 ENE 8 13 1016.1 - 0.0 - - - - - - -
24/11:00am 27.7 E 8 14 1016.5 - 0.0 - - - - - - -
24/10:30am 27.4 E 8 13 1016.9 - 0.0 - - - - - - -
24/10:00am 26.5 E 9 14 1017.2 - 0.0 - - - - - - -
24/09:30am 25.1 ENE 8 15 1017.4 - 0.0 - - - - - - -
24/09:00am 24.0 ENE 9 15 1017.3 - 0.0 - - - - - - -
24/08:30am 23.0 ENE 8 13 1017.0 - 0.0 - - - - - - -
24/08:00am 21.6 ENE 6 10 1016.7 - 0.0 - - - - - - -
24/07:30am 19.8 ENE 4 6 1016.5 - 0.0 - - - - - - -
24/07:00am 18.1 ENE 3 4 1016.3 - 0.0 - - - - - - -
24/06:30am 18.1 ENE 2 3 1015.9 - 0.0 - - - - - - -
24/06:00am 18.5 E 3 4 1015.6 - 0.0 - - - - - - -
24/05:30am 18.2 ENE 3 4 1015.3 - 0.0 - - - - - - -
24/05:00am 17.8 ESE 1 4 1015.3 - 0.0 - - - - - - -
24/04:30am 18.2 ESE 2 4 1015.1 - 0.0 - - - - - - -
24/04:00am 18.2 CALM 0 0 1014.9 - 0.0 - - - - - - -
24/03:30am 18.6 CALM 0 0 1014.9 - 0.0 - - - - - - -
24/03:00am 18.5 NNE 4 6 1014.9 - 0.0 - - - - - - -
24/02:30am 18.8 CALM 0 0 1014.9 - 0.0 - - - - - - -
24/02:00am 19.8 CALM 0 0 1015.0 - 0.0 - - - - - - -
24/01:30am 20.7 CALM 0 0 1015.2 - 0.0 - Partly cloudy - - - - -
24/01:00am 21.2 CALM 0 0 1015.2 - 0.0 - Partly cloudy - - - - -
24/12:30am 22.0 ENE 4 6 1015.6 - 0.0 - Partly cloudy - - - - -
24/12:00am 21.4 ENE 6 9 1015.2 - 0.0 - Cloudy - - - - -
 
Date/Time
EST
Temp

°C
Wind Pressure Rain
since 9am
mm
Weather Cloud Vis
km
Sea
Height
m
Swell
Dir
 
Speed
knots
Gust
knots
hPa Trend Height
m
Period
s
Dir
23/11:30pm 21.6 SSW 3 4 1015.0 - 0.0 - Partly cloudy - - - - -
23/11:00pm 21.5 SSW 4 5 1015.2 - 0.0 - - - - - - -
23/10:30pm 21.7 SSW 4 6 1015.1 - 0.0 - - - - - - -
23/10:00pm 22.0 SSW 5 8 1015.3 - 0.0 - - - - - - -
23/09:30pm 22.5 SSW 6 8 1015.4 - 0.0 - - - - - - -
23/09:00pm 22.6 SSW 4 6 1015.3 - 0.0 - - - - - - -
23/08:30pm 23.2 SW 5 6 1015.2 - 0.0 - - - - - - -
23/08:00pm 23.6 SW 6 8 1015.0 - 0.0 - - - - - - -
23/07:30pm 23.9 WSW 5 8 1014.7 - 0.0 - - - - - - -
23/07:00pm 24.2 W 6 7 1014.5 - 0.0 - - - - - - -
23/06:30pm 25.4 WSW 6 8 1014.3 - 0.0 - - - - - - -
23/06:00pm 26.5 W 7 9 1013.9 - 0.0 - - - - - - -
23/05:30pm 28.0 W 7 11 1013.6 - 0.0 - - - - - - -
23/05:00pm 29.1 W 10 13 1013.1 - 0.0 - - - - - - -
23/04:30pm 30.3 W 9 13 1012.9 - 0.0 - Partly cloudy - - - - -
23/04:00pm 31.0 W 9 14 1012.8 - 0.0 - - - - - - -
23/03:30pm 32.4 W 4 6 1012.7 - 0.0 - - - - - - -
23/03:00pm 31.9 SW 5 7 1012.9 - 0.0 - - - - - - -
23/02:30pm 31.3 SSW 3 7 1013.1 - 0.0 - - - - - - -
23/02:00pm 31.1 SSE 5 8 1013.4 - 0.0 - - - - - - -
23/01:30pm 31.5 NW 4 7 1013.7 - 0.0 - - - - - - -
23/01:00pm 30.7 WSW 3 6 1014.1 - 0.0 - - - - - - -
23/12:30pm 30.2 NNE 3 12 1014.6 - 0.0 - - - - - - -
23/12:00pm 29.2 SSE 5 8 1015.0 - 0.0 - - - - - - -
23/11:30am 29.1 NE 3 8 1015.6 - 0.0 - - - - - - -
23/11:00am 27.8 E 3 8 1016.0 - 0.0 - - - - - - -
23/10:30am 27.7 SE 5 7 1016.4 - 0.0 - Partly cloudy - - - - -
23/10:00am 26.5 SSE 5 8 1016.5 - 0.0 - - - - - - -
23/09:30am 25.1 S 6 9 1016.7 - 0.0 - - - - - - -
23/09:00am 24.3 SSE 6 8 1016.7 - 0.0 - - - - - - -
23/08:30am 22.9 SSE 5 7 1016.5 - 0.0 - - - - - - -
23/08:00am 21.7 S 5 6 1016.3 - 0.0 - - - - - - -
23/07:30am 20.3 S 4 5 1016.2 - 0.0 - - - - - - -
23/07:00am 19.7 SSE 4 5 1016.1 - 0.0 - - - - - - -
23/06:30am 20.1 S 5 7 1015.8 - 0.0 - - - - - - -
23/06:00am 20.5 SSE 5 7 1015.6 - 0.0 - - - - - - -
23/05:30am 20.5 SSE 5 7 1015.4 - 0.0 - - - - - - -
23/05:00am 21.0 SSE 5 6 1015.3 - 0.0 - - - - - - -
23/04:30am 22.0 SSE 6 9 1015.2 - 0.0 - - - - - - -
23/04:00am 22.2 S 7 9 1015.3 - 0.0 - Partly cloudy - - - - -
23/03:30am 22.2 S 7 9 1015.3 - 0.0 - - - - - - -
23/03:00am 22.5 SE 5 7 1015.8 - 0.0 - Mostly clear - - - - -
23/02:30am 23.3 SSE 6 7 1015.9 - 0.0 - Cloudy - - - - -
23/02:00am 23.2 ESE 5 7 1015.8 - 0.0 - Partly cloudy - - - - -

Other Formats:

Comma delimited format used in spreadsheet applications
http://www.bom.gov.au/fwo/IDQ60701/IDQ60701.94268.axf

JavaScript Object Notation format (JSON) in row-major order
http://www.bom.gov.au/fwo/IDQ60701/IDQ60701.94268.json